createdAt,value
2022-07-29T00:00:11.667Z,63.60
2022-07-29T00:02:38.943Z,63.47
2022-07-29T00:05:10.067Z,63.54
2022-07-29T00:07:36.888Z,64.01
2022-07-29T00:10:07.598Z,63.99
2022-07-29T00:12:34.391Z,64.37
2022-07-29T00:15:08.206Z,64.42
2022-07-29T00:17:35.228Z,64.64
2022-07-29T00:20:03.597Z,64.99
2022-07-29T00:22:32.741Z,65.17
2022-07-29T00:24:59.850Z,65.39
2022-07-29T00:27:27.016Z,65.06
2022-07-29T00:29:53.933Z,65.14
2022-07-29T00:32:20.791Z,65.32
2022-07-29T00:35:06.398Z,65.10
2022-07-29T00:37:33.155Z,65.16
2022-07-29T00:39:59.994Z,65.12
2022-07-29T00:42:26.838Z,65.37
2022-07-29T00:44:53.591Z,65.78
2022-07-29T00:47:20.412Z,65.99
2022-07-29T00:49:47.351Z,66.04
2022-07-29T00:52:16.906Z,66.21
2022-07-29T00:54:46.427Z,66.53
2022-07-29T00:57:14.293Z,66.29
2022-07-29T00:59:41.193Z,66.31
2022-07-29T01:02:07.992Z,66.86
2022-07-29T01:04:34.957Z,66.48
2022-07-29T01:07:05.292Z,66.69
2022-07-29T01:09:45.430Z,66.83
2022-07-29T01:12:27.271Z,66.82
2022-07-29T01:14:55.244Z,66.99
2022-07-29T01:17:25.890Z,67.03
2022-07-29T01:20:00.158Z,67.20
2022-07-29T01:22:29.223Z,67.39
2022-07-29T01:25:19.852Z,67.90
2022-07-29T01:28:02.295Z,67.59
2022-07-29T01:30:32.026Z,67.91
2022-07-29T01:33:01.652Z,68.04
2022-07-29T01:35:35.074Z,67.82
2022-07-29T01:38:11.043Z,68.28
2022-07-29T01:40:49.170Z,68.24
2022-07-29T01:43:20.112Z,68.20
2022-07-29T01:45:54.569Z,68.57
2022-07-29T01:48:24.678Z,68.46
2022-07-29T01:50:59.972Z,68.94
2022-07-29T01:53:58.656Z,68.76
2022-07-29T01:56:25.939Z,69.07
2022-07-29T01:58:53.319Z,69.50
2022-07-29T02:01:20.901Z,69.51
2022-07-29T02:03:48.665Z,69.96
2022-07-29T02:06:18.825Z,69.84
2022-07-29T02:08:46.531Z,70.42
2022-07-29T02:11:13.327Z,70.32
2022-07-29T02:13:40.966Z,70.42
2022-07-29T02:16:08.873Z,70.73
2022-07-29T02:18:37.900Z,71.15
2022-07-29T02:21:05.767Z,71.02
2022-07-29T02:23:51.599Z,70.95
2022-07-29T02:26:19.513Z,71.28
2022-07-29T02:28:47.588Z,71.18
2022-07-29T02:31:15.395Z,71.05
2022-07-29T02:33:43.030Z,71.08
2022-07-29T02:36:10.144Z,71.23
2022-07-29T02:38:52.248Z,70.95
2022-07-29T02:41:25.615Z,71.48
2022-07-29T02:43:56.652Z,70.90
2022-07-29T02:46:34.313Z,71.15
2022-07-29T02:49:16.864Z,70.58
2022-07-29T02:51:59.630Z,70.60
2022-07-29T02:54:42.353Z,70.66
2022-07-29T02:57:55.085Z,70.28
2022-07-29T03:00:24.852Z,70.84
2022-07-29T03:02:53.896Z,70.63
2022-07-29T03:05:21.698Z,70.85
2022-07-29T03:07:58.587Z,70.48
2022-07-29T03:10:27.619Z,70.56
2022-07-29T03:12:56.803Z,70.13
2022-07-29T03:15:24.861Z,70.36
2022-07-29T03:17:52.349Z,70.49
2022-07-29T03:20:19.416Z,70.30
2022-07-29T03:22:49.073Z,70.42
2022-07-29T03:25:17.381Z,70.68
2022-07-29T03:27:45.237Z,70.75
2022-07-29T03:30:18.398Z,70.83
2022-07-29T03:32:52.279Z,70.67
2022-07-29T03:35:23.703Z,70.74
2022-07-29T03:37:50.634Z,70.60
2022-07-29T03:40:46.052Z,70.90
2022-07-29T03:43:14.506Z,70.93
2022-07-29T03:45:44.157Z,70.86
2022-07-29T03:48:14.190Z,71.01
2022-07-29T03:50:41.214Z,70.93
2022-07-29T03:53:08.793Z,70.77
2022-07-29T03:55:40.117Z,71.05
2022-07-29T03:58:07.803Z,71.03
2022-07-29T04:00:35.969Z,71.34
2022-07-29T04:03:05.113Z,71.13
2022-07-29T04:05:37.652Z,71.21
2022-07-29T04:08:04.544Z,71.11
2022-07-29T04:10:32.197Z,71.14
2022-07-29T04:13:01.007Z,71.14
2022-07-29T04:15:31.083Z,71.18
2022-07-29T04:17:58.925Z,71.33
2022-07-29T04:20:25.683Z,71.33
2022-07-29T04:22:52.737Z,71.36
2022-07-29T04:25:19.654Z,70.89
2022-07-29T04:28:01.663Z,70.97
2022-07-29T04:30:29.077Z,70.84
2022-07-29T04:32:55.786Z,70.75
2022-07-29T04:35:22.520Z,70.63
2022-07-29T04:37:49.233Z,70.50
2022-07-29T04:40:16.044Z,70.64
2022-07-29T04:42:46.808Z,70.52
2022-07-29T04:45:14.878Z,70.52
2022-07-29T04:47:43.112Z,70.65
2022-07-29T04:50:10.624Z,70.33
2022-07-29T04:52:40.990Z,70.28
2022-07-29T04:55:08.877Z,70.37
2022-07-29T04:57:35.697Z,70.38
2022-07-29T05:00:02.786Z,70.45
2022-07-29T05:02:29.612Z,70.59
2022-07-29T05:04:56.429Z,70.71
2022-07-29T05:07:23.173Z,70.70
2022-07-29T05:09:50.118Z,70.65
2022-07-29T05:12:16.943Z,70.73
2022-07-29T05:14:43.653Z,70.61
2022-07-29T05:17:10.434Z,70.64
2022-07-29T05:19:39.525Z,70.55
2022-07-29T05:22:06.990Z,70.34
2022-07-29T05:24:33.775Z,70.40
2022-07-29T05:27:00.541Z,70.47
2022-07-29T05:29:42.682Z,70.52
2022-07-29T05:32:11.901Z,70.45
2022-07-29T05:34:38.627Z,70.21
2022-07-29T05:37:21.227Z,70.46
2022-07-29T05:39:56.803Z,70.22
2022-07-29T05:42:25.370Z,69.96
2022-07-29T05:44:52.623Z,69.98
2022-07-29T05:47:19.759Z,69.59
2022-07-29T05:49:47.178Z,69.27
2022-07-29T05:52:16.881Z,68.76
2022-07-29T05:54:43.942Z,68.19
2022-07-29T05:57:29.580Z,67.63
2022-07-29T06:00:17.725Z,67.24
2022-07-29T06:02:48.101Z,67.42
2022-07-29T06:07:05.699Z,67.26
2022-07-29T06:08:55.283Z,67.09
2022-07-29T06:11:29.932Z,66.99
2022-07-29T06:14:30.157Z,66.82
2022-07-29T06:17:32.275Z,66.85
2022-07-29T06:20:37.676Z,66.84
2022-07-29T06:36:16.538Z,64.76
2022-07-29T06:39:59.754Z,64.24
2022-07-29T06:42:48.891Z,64.06
2022-07-29T07:04:06.860Z,62.41
2022-07-29T07:17:08.740Z,61.86
2022-07-29T08:39:12.368Z,50.63
2022-07-29T08:53:30.907Z,47.48
2022-07-29T09:21:18.161Z,43.31
2022-07-29T09:37:07.111Z,39.98
2022-07-29T09:49:56.667Z,37.98
2022-07-29T09:53:03.603Z,38.19
2022-07-29T10:00:24.269Z,38.03
2022-07-29T10:05:00.049Z,38.05
2022-07-29T10:08:18.404Z,38.51
2022-07-29T10:10:58.771Z,38.50
2022-07-29T10:32:59.939Z,36.26
2022-07-29T13:01:49.938Z,33.64
2022-07-29T13:16:34.920Z,33.23
2022-07-29T13:20:22.650Z,33.30
2022-07-29T13:27:16.473Z,33.21
2022-07-29T13:31:28.940Z,32.39
2022-07-29T15:26:46.488Z,29.03
2022-07-29T15:30:05.543Z,28.25
2022-07-29T15:34:17.518Z,28.20
2022-07-29T16:00:35.188Z,28.65
2022-07-29T16:04:16.550Z,29.42
2022-07-29T16:11:09.835Z,28.77
2022-07-29T16:14:54.525Z,28.15
2022-07-29T16:21:26.355Z,28.54
2022-07-29T16:23:56.273Z,29.72
2022-07-29T16:26:23.119Z,29.97
2022-07-29T16:28:50.008Z,30.33
2022-07-29T16:31:22.369Z,30.42
2022-07-29T16:33:54.648Z,31.09
2022-07-29T16:36:23.161Z,31.20
2022-07-29T16:42:46.139Z,31.77
2022-07-29T16:45:18.172Z,32.11
2022-07-29T16:47:48.562Z,32.31
2022-07-29T16:50:15.523Z,32.63
2022-07-29T16:52:42.287Z,33.12
2022-07-29T16:55:09.317Z,33.14
2022-07-29T16:57:44.046Z,33.56
2022-07-29T17:00:11.579Z,33.50
2022-07-29T17:02:38.922Z,33.66
2022-07-29T17:05:12.993Z,33.82
2022-07-29T17:07:41.131Z,33.85
2022-07-29T17:10:10.099Z,34.15
2022-07-29T17:12:38.499Z,33.97
2022-07-29T17:15:07.148Z,33.99
2022-07-29T17:17:39.195Z,33.90
2022-07-29T17:20:28.107Z,34.36
2022-07-29T17:22:56.373Z,34.42
2022-07-29T17:25:23.647Z,34.70
2022-07-29T17:27:50.929Z,34.06
2022-07-29T17:30:18.015Z,34.55
2022-07-29T17:32:44.823Z,34.55
2022-07-29T17:35:41.049Z,34.59
2022-07-29T17:38:07.919Z,34.61
2022-07-29T17:46:56.967Z,34.49
2022-07-29T17:49:23.999Z,34.59
2022-07-29T17:51:50.718Z,34.61
2022-07-29T17:54:17.421Z,34.52
2022-07-29T17:56:44.122Z,34.97
2022-07-29T17:59:11.092Z,34.79
2022-07-29T18:01:39.155Z,34.88
2022-07-29T18:04:06.109Z,34.64
2022-07-29T18:06:32.947Z,34.61
2022-07-29T18:09:03.014Z,34.59
2022-07-29T18:11:31.818Z,35.19
2022-07-29T18:13:58.753Z,35.78
2022-07-29T18:16:29.435Z,36.73
2022-07-29T18:18:56.287Z,37.21
2022-07-29T18:21:43.624Z,37.33
2022-07-29T18:24:10.897Z,36.61
2022-07-29T18:26:38.533Z,36.75
2022-07-29T18:29:05.371Z,37.35
2022-07-29T18:31:36.309Z,36.55
2022-07-29T18:34:03.181Z,37.07
2022-07-29T18:36:30.923Z,37.34
2022-07-29T18:39:01.780Z,37.58
2022-07-29T18:41:29.314Z,38.47
2022-07-29T18:44:10.111Z,38.09
2022-07-29T18:46:37.504Z,38.08
2022-07-29T18:49:11.995Z,38.63
2022-07-29T18:51:38.947Z,38.51
2022-07-29T18:54:06.036Z,38.54
2022-07-29T18:56:32.726Z,38.33
2022-07-29T18:58:59.529Z,38.70
2022-07-29T19:01:31.877Z,38.75
2022-07-29T19:03:59.153Z,38.86
2022-07-29T19:06:26.154Z,39.90
2022-07-29T19:08:53.378Z,39.13
2022-07-29T19:11:20.078Z,39.11
2022-07-29T19:13:46.805Z,39.44
2022-07-29T19:16:14.644Z,39.35
2022-07-29T19:18:41.775Z,39.95
2022-07-29T19:21:08.601Z,39.76
2022-07-29T19:24:03.836Z,39.75
2022-07-29T19:26:29.988Z,39.54
2022-07-29T19:29:29.638Z,40.10
2022-07-29T19:32:42.931Z,40.67
2022-07-29T19:35:24.675Z,40.95
2022-07-29T19:37:52.062Z,41.34
2022-07-29T19:40:19.036Z,42.26
2022-07-29T19:42:45.874Z,42.74
2022-07-29T19:45:12.748Z,44.79
2022-07-29T19:47:39.765Z,44.10
2022-07-29T19:50:07.593Z,42.61
2022-07-29T19:52:36.630Z,41.77
2022-07-29T19:55:07.527Z,43.11
2022-07-29T19:57:40.531Z,41.46
2022-07-29T20:00:44.347Z,41.65
2022-07-29T20:03:25.655Z,41.13
2022-07-29T20:06:12.390Z,41.70
2022-07-29T20:09:03.682Z,41.90
2022-07-29T20:11:44.626Z,41.82
2022-07-29T20:14:37.791Z,42.11
2022-07-29T20:20:53.780Z,42.28
2022-07-29T20:23:43.580Z,42.89
2022-07-29T20:26:12.797Z,43.07
2022-07-29T20:29:28.291Z,43.47
2022-07-29T20:32:41.242Z,45.86
2022-07-29T20:35:19.743Z,45.75
2022-07-29T20:38:34.394Z,43.58
2022-07-29T20:41:35.432Z,43.23
2022-07-29T20:44:22.541Z,43.29
2022-07-29T20:46:57.832Z,43.55
2022-07-29T20:50:06.825Z,43.46
2022-07-29T20:52:59.188Z,44.28
2022-07-29T20:55:51.468Z,45.53
2022-07-29T20:58:25.488Z,46.68
2022-07-29T21:04:38.889Z,47.38
2022-07-29T21:07:41.874Z,47.66
2022-07-29T21:10:37.933Z,49.13
2022-07-29T21:13:08.243Z,48.66
2022-07-29T21:15:47.774Z,48.34
2022-07-29T21:18:32.743Z,48.42
2022-07-29T21:21:35.102Z,48.89
2022-07-29T21:24:15.821Z,48.80
2022-07-29T21:27:20.570Z,48.15
2022-07-29T21:30:14.500Z,48.17
2022-07-29T21:32:48.140Z,48.20
2022-07-29T21:36:01.944Z,48.18
2022-07-29T21:38:22.154Z,47.44
2022-07-29T21:40:52.917Z,47.74
2022-07-29T21:43:21.414Z,48.78
2022-07-29T21:46:02.112Z,47.95
2022-07-29T21:49:02.943Z,48.28
2022-07-29T21:51:57.724Z,47.96
2022-07-29T21:54:44.598Z,47.40
2022-07-29T22:11:01.098Z,46.13
2022-07-29T22:14:09.419Z,45.54
2022-07-29T22:16:58.882Z,45.77
2022-07-29T22:19:40.430Z,45.35
2022-07-29T22:22:07.526Z,46.15
2022-07-29T22:24:34.282Z,45.76
2022-07-29T22:27:10.945Z,45.63
2022-07-29T22:29:37.937Z,46.22
2022-07-29T22:32:15.785Z,46.74
2022-07-29T22:34:54.078Z,46.15
2022-07-29T22:37:28.870Z,45.71
2022-07-29T22:39:57.352Z,46.19
2022-07-29T22:42:24.435Z,46.76
2022-07-29T22:44:51.477Z,46.55
2022-07-29T22:47:46.578Z,46.07
2022-07-29T22:50:11.595Z,46.60
2022-07-29T22:52:38.392Z,45.95
2022-07-29T22:55:05.734Z,45.42
2022-07-29T22:57:32.576Z,45.56
2022-07-29T23:00:01.895Z,46.08
2022-07-29T23:02:28.781Z,45.57
2022-07-29T23:04:55.536Z,45.98
2022-07-29T23:07:25.346Z,46.28
2022-07-29T23:09:58.096Z,45.72
2022-07-29T23:12:25.489Z,45.88
2022-07-29T23:14:53.414Z,45.39
2022-07-29T23:17:23.420Z,45.79
2022-07-29T23:19:53.118Z,45.77
2022-07-29T23:22:24.184Z,45.72
2022-07-29T23:24:53.718Z,46.05
2022-07-29T23:27:23.018Z,45.65
2022-07-29T23:29:55.243Z,45.43
2022-07-29T23:32:29.128Z,46.13
2022-07-29T23:34:58.604Z,46.07
2022-07-29T23:37:26.949Z,45.86
2022-07-29T23:39:53.995Z,45.81
2022-07-29T23:42:20.759Z,46.24
2022-07-29T23:44:51.586Z,46.18
2022-07-29T23:47:20.753Z,46.37
2022-07-29T23:49:50.032Z,46.38
2022-07-29T23:52:20.044Z,46.18
2022-07-29T23:54:46.846Z,46.48
2022-07-29T23:57:13.707Z,46.15
2022-07-29T23:59:41.553Z,46.24
